createdAt,value
2022-08-26T00:01:01.316Z,22.93
2022-08-26T00:03:28.425Z,22.90
2022-08-26T00:05:55.621Z,22.90
2022-08-26T00:08:22.458Z,22.90
2022-08-26T00:10:49.283Z,22.88
2022-08-26T00:13:16.559Z,22.86
2022-08-26T00:15:47.096Z,22.86
2022-08-26T00:18:21.867Z,22.86
2022-08-26T00:20:50.081Z,22.86
2022-08-26T00:23:17.807Z,22.86
2022-08-26T00:25:44.680Z,22.86
2022-08-26T00:28:12.897Z,22.85
2022-08-26T00:30:40.843Z,22.85
2022-08-26T00:33:08.496Z,22.82
2022-08-26T00:35:36.146Z,22.77
2022-08-26T00:38:04.769Z,22.75
2022-08-26T00:40:34.894Z,22.72
2022-08-26T00:43:02.829Z,22.69
2022-08-26T00:45:38.022Z,22.70
2022-08-26T00:48:06.074Z,22.71
2022-08-26T00:50:35.873Z,22.70
2022-08-26T00:53:04.585Z,22.71
2022-08-26T00:55:40.870Z,22.67
2022-08-26T00:58:08.466Z,22.67
2022-08-26T01:00:35.750Z,22.68
2022-08-26T01:03:03.279Z,22.67
2022-08-26T01:05:32.673Z,22.68
2022-08-26T01:07:59.726Z,22.68
2022-08-26T01:10:29.061Z,22.66
2022-08-26T01:12:58.247Z,22.65
2022-08-26T01:15:32.764Z,22.68
2022-08-26T01:18:00.212Z,22.67
2022-08-26T01:20:46.150Z,22.67
2022-08-26T01:23:13.649Z,22.62
2022-08-26T01:25:50.767Z,22.58
2022-08-26T01:28:21.849Z,22.57
2022-08-26T01:30:49.467Z,22.55
2022-08-26T01:33:18.096Z,22.54
2022-08-26T01:35:45.251Z,22.54
2022-08-26T01:38:12.834Z,22.52
2022-08-26T01:40:43.951Z,22.49
2022-08-26T01:43:14.786Z,22.48
2022-08-26T01:45:42.286Z,22.42
2022-08-26T01:48:13.431Z,22.39
2022-08-26T01:50:40.431Z,22.38
2022-08-26T01:53:09.453Z,22.37
2022-08-26T01:55:39.370Z,22.33
2022-08-26T01:58:10.136Z,22.30
2022-08-26T02:00:38.987Z,22.27
2022-08-26T02:03:21.499Z,22.24
2022-08-26T02:05:53.090Z,22.20
2022-08-26T02:08:25.519Z,22.15
2022-08-26T02:10:54.767Z,22.07
2022-08-26T02:13:23.114Z,22.05
2022-08-26T02:15:52.275Z,22.01
2022-08-26T02:18:19.497Z,21.99
2022-08-26T02:20:46.300Z,21.94
2022-08-26T02:23:13.031Z,21.87
2022-08-26T02:25:40.032Z,21.87
2022-08-26T02:28:07.589Z,21.85
2022-08-26T02:30:35.176Z,21.85
2022-08-26T02:33:03.874Z,21.84
2022-08-26T02:35:32.116Z,21.82
2022-08-26T02:37:59.019Z,21.84
2022-08-26T02:40:29.289Z,21.82
2022-08-26T02:42:57.108Z,21.75
2022-08-26T02:45:24.709Z,21.73
2022-08-26T02:47:52.442Z,21.68
2022-08-26T02:50:19.758Z,21.66
2022-08-26T02:52:48.425Z,21.65
2022-08-26T02:55:15.919Z,21.61
2022-08-26T02:57:42.725Z,21.60
2022-08-26T03:00:11.129Z,21.60
2022-08-26T03:02:38.334Z,21.59
2022-08-26T03:05:05.426Z,21.59
2022-08-26T03:07:32.219Z,21.57
2022-08-26T03:09:59.595Z,21.55
2022-08-26T03:12:26.550Z,21.50
2022-08-26T03:14:53.473Z,21.50
2022-08-26T03:17:21.209Z,21.50
2022-08-26T03:19:51.736Z,21.50
2022-08-26T03:22:21.616Z,21.51
2022-08-26T03:24:49.623Z,21.49
2022-08-26T03:27:16.594Z,21.47
2022-08-26T03:30:03.078Z,21.48
2022-08-26T03:32:30.790Z,21.49
2022-08-26T03:34:57.990Z,21.47
2022-08-26T03:37:25.136Z,21.47
2022-08-26T03:39:52.728Z,21.46
2022-08-26T03:42:21.564Z,21.47
2022-08-26T03:44:48.920Z,21.48
2022-08-26T03:47:15.920Z,21.49
2022-08-26T03:49:43.135Z,21.47
2022-08-26T03:52:10.516Z,21.46
2022-08-26T03:54:37.785Z,21.45
2022-08-26T03:57:04.919Z,21.41
2022-08-26T03:59:32.398Z,21.40
2022-08-26T04:01:59.312Z,21.38
2022-08-26T04:04:26.450Z,21.39
2022-08-26T04:06:56.581Z,21.38
2022-08-26T04:09:23.358Z,21.37
2022-08-26T04:11:52.232Z,21.40
2022-08-26T04:14:21.118Z,21.43
2022-08-26T04:16:48.286Z,21.38
2022-08-26T04:19:16.113Z,21.44
2022-08-26T04:21:45.096Z,21.47
2022-08-26T04:24:15.758Z,21.47
2022-08-26T04:26:43.888Z,21.50
2022-08-26T04:29:18.937Z,21.53
2022-08-26T04:31:48.160Z,21.57
2022-08-26T04:34:15.851Z,21.60
2022-08-26T04:36:43.185Z,21.62
2022-08-26T04:39:16.971Z,21.66
2022-08-26T04:41:47.907Z,21.72
2022-08-26T04:44:16.490Z,21.77
2022-08-26T04:46:44.268Z,21.82
2022-08-26T04:49:11.625Z,21.86
2022-08-26T04:51:39.136Z,21.93
2022-08-26T04:54:07.249Z,22.07
2022-08-26T04:56:39.054Z,22.17
2022-08-26T04:59:08.336Z,22.21
2022-08-26T05:01:49.270Z,22.28
2022-08-26T05:04:18.791Z,22.32
2022-08-26T05:06:47.135Z,22.38
2022-08-26T05:09:14.533Z,22.44
2022-08-26T05:11:42.632Z,22.55
2022-08-26T05:14:10.104Z,22.66
2022-08-26T05:16:37.767Z,22.75
2022-08-26T05:19:07.456Z,22.84
2022-08-26T05:21:36.213Z,22.95
2022-08-26T05:24:04.728Z,23.07
2022-08-26T05:27:37.740Z,23.32
2022-08-26T05:30:06.581Z,23.44
2022-08-26T05:32:33.401Z,23.51
2022-08-26T05:35:00.233Z,23.59
2022-08-26T05:37:27.870Z,23.74
2022-08-26T05:39:55.196Z,23.94
2022-08-26T05:42:23.605Z,24.06
2022-08-26T05:44:56.076Z,24.22
2022-08-26T05:47:23.735Z,24.36
2022-08-26T05:49:51.596Z,24.52
2022-08-26T05:52:19.154Z,24.75
2022-08-26T05:54:45.993Z,24.97
2022-08-26T05:57:15.011Z,25.28
2022-08-26T05:59:42.255Z,25.93
2022-08-26T06:02:09.889Z,26.89
2022-08-26T06:04:37.104Z,27.76
2022-08-26T06:07:03.988Z,28.57
2022-08-26T06:09:32.387Z,29.22
2022-08-26T06:12:01.909Z,29.74
2022-08-26T06:14:29.073Z,30.16
2022-08-26T06:17:00.861Z,30.48
2022-08-26T06:19:32.698Z,30.67
2022-08-26T06:22:23.457Z,30.96
2022-08-26T06:25:09.935Z,31.19
2022-08-26T06:27:38.115Z,31.45
2022-08-26T06:30:05.757Z,31.55
2022-08-26T06:32:33.183Z,31.59
2022-08-26T06:35:00.337Z,31.74
2022-08-26T06:37:30.519Z,31.67
2022-08-26T06:39:57.589Z,31.74
2022-08-26T06:42:24.939Z,31.79
2022-08-26T06:44:51.856Z,31.79
2022-08-26T06:47:18.655Z,31.86
2022-08-26T06:49:45.782Z,32.11
2022-08-26T06:52:12.751Z,31.93
2022-08-26T06:54:43.250Z,32.02
2022-08-26T06:57:11.629Z,32.11
2022-08-26T06:59:38.564Z,32.14
2022-08-26T07:02:06.263Z,32.38
2022-08-26T07:04:35.897Z,32.58
2022-08-26T07:07:04.109Z,32.85
2022-08-26T07:09:33.259Z,33.05
2022-08-26T07:12:01.964Z,33.38
2022-08-26T07:14:31.810Z,33.34
2022-08-26T07:17:00.371Z,33.31
2022-08-26T07:19:30.014Z,33.04
2022-08-26T07:21:59.404Z,33.02
2022-08-26T07:24:28.496Z,33.18
2022-08-26T07:27:06.406Z,33.53
2022-08-26T07:29:33.781Z,33.67
2022-08-26T07:32:01.210Z,33.70
2022-08-26T07:34:28.147Z,33.67
2022-08-26T07:36:56.256Z,33.91
2022-08-26T07:39:23.683Z,34.14
2022-08-26T07:41:51.051Z,34.34
2022-08-26T07:44:18.011Z,34.45
2022-08-26T07:46:53.285Z,34.61
2022-08-26T07:49:21.635Z,34.80
2022-08-26T07:51:49.875Z,34.93
2022-08-26T07:54:17.005Z,34.91
2022-08-26T07:56:44.695Z,34.86
2022-08-26T07:59:13.850Z,34.58
2022-08-26T08:01:45.100Z,34.34
2022-08-26T08:04:16.334Z,34.24
2022-08-26T08:06:44.164Z,33.96
2022-08-26T08:09:11.614Z,33.69
2022-08-26T08:11:38.963Z,33.38
2022-08-26T08:14:08.525Z,32.99
2022-08-26T08:16:41.521Z,32.65
2022-08-26T08:19:13.545Z,32.23
2022-08-26T08:21:42.240Z,32.08
2022-08-26T08:24:10.870Z,32.19
2022-08-26T08:26:37.847Z,32.27
2022-08-26T08:29:06.255Z,32.12
2022-08-26T08:34:21.889Z,31.83
2022-08-26T08:36:48.994Z,31.98
2022-08-26T08:39:16.909Z,32.19
2022-08-26T08:41:51.469Z,32.24
2022-08-26T08:44:20.372Z,32.57
2022-08-26T08:46:51.310Z,32.95
2022-08-26T08:49:18.605Z,33.18
2022-08-26T08:51:48.311Z,33.35
2022-08-26T08:54:15.555Z,33.58
2022-08-26T08:56:47.180Z,33.82
2022-08-26T08:59:19.350Z,34.13
2022-08-26T09:02:05.692Z,34.20
2022-08-26T09:04:52.296Z,34.41
2022-08-26T09:07:25.354Z,34.50
2022-08-26T09:09:57.255Z,34.20
2022-08-26T09:12:29.345Z,34.04
2022-08-26T09:15:02.474Z,33.91
2022-08-26T09:17:49.736Z,34.00
2022-08-26T09:20:25.842Z,33.86
2022-08-26T09:22:52.827Z,33.75
2022-08-26T09:25:20.143Z,33.66
2022-08-26T09:27:50.551Z,33.67
2022-08-26T09:30:33.060Z,33.56
2022-08-26T09:33:01.564Z,33.44
2022-08-26T09:35:33.196Z,33.51
2022-08-26T09:38:00.523Z,33.57
2022-08-26T09:40:34.861Z,33.67
2022-08-26T09:43:11.856Z,33.68
2022-08-26T09:45:40.652Z,33.57
2022-08-26T09:48:44.281Z,33.74
2022-08-26T09:51:22.981Z,33.63
2022-08-26T09:53:51.924Z,33.58
2022-08-26T09:56:27.587Z,33.54
2022-08-26T09:58:55.976Z,33.49
2022-08-26T10:01:23.127Z,33.30
2022-08-26T10:03:51.510Z,33.16
2022-08-26T10:06:20.940Z,32.91
2022-08-26T10:08:59.092Z,32.72
2022-08-26T10:11:30.580Z,32.53
2022-08-26T10:14:07.667Z,32.39
2022-08-26T10:16:42.060Z,32.27
2022-08-26T10:19:11.676Z,32.16
2022-08-26T10:21:54.779Z,32.14
2022-08-26T10:24:28.349Z,32.12
2022-08-26T10:27:06.011Z,32.08
2022-08-26T10:29:44.237Z,32.04
2022-08-26T10:32:17.055Z,31.98
2022-08-26T10:34:46.990Z,31.99
2022-08-26T10:37:18.310Z,32.03
2022-08-26T10:39:51.883Z,32.02
2022-08-26T10:42:27.457Z,32.13
2022-08-26T10:45:02.395Z,32.25
2022-08-26T10:47:45.585Z,32.32
2022-08-26T10:50:12.775Z,32.30
2022-08-26T10:52:40.037Z,32.23
2022-08-26T10:55:16.858Z,32.18
2022-08-26T10:57:48.556Z,32.14
2022-08-26T11:00:39.657Z,32.09
2022-08-26T11:03:22.701Z,32.09
2022-08-26T11:06:08.343Z,32.10
2022-08-26T11:08:45.109Z,32.13
2022-08-26T11:11:12.021Z,32.16
2022-08-26T11:13:59.361Z,32.21
2022-08-26T11:16:33.943Z,32.20
2022-08-26T11:19:02.010Z,32.13
2022-08-26T11:21:43.818Z,32.04
2022-08-26T11:24:30.385Z,32.03
2022-08-26T11:26:58.492Z,32.04
2022-08-26T11:30:01.288Z,32.09
2022-08-26T11:32:34.319Z,32.16
2022-08-26T11:35:06.317Z,32.12
2022-08-26T11:37:41.572Z,32.05
2022-08-26T11:40:13.353Z,32.03
2022-08-26T11:42:42.722Z,32.02
2022-08-26T11:45:22.423Z,32.06
2022-08-26T11:47:50.836Z,32.03
2022-08-26T11:50:20.404Z,32.05
2022-08-26T11:52:54.653Z,32.04
2022-08-26T11:55:23.292Z,32.01
2022-08-26T11:57:51.670Z,31.92
2022-08-26T12:00:22.319Z,31.85
2022-08-26T12:02:50.292Z,31.87
2022-08-26T12:05:42.658Z,31.90
2022-08-26T12:08:12.742Z,31.92
2022-08-26T12:10:40.221Z,31.92
2022-08-26T12:13:07.652Z,31.92
2022-08-26T12:15:35.671Z,31.92
2022-08-26T12:18:20.559Z,31.91
2022-08-26T12:20:57.960Z,31.93
2022-08-26T12:23:27.145Z,31.90
2022-08-26T12:26:02.228Z,31.90
2022-08-26T12:28:30.671Z,31.94
2022-08-26T12:31:05.242Z,32.01
2022-08-26T12:33:38.524Z,32.06
2022-08-26T12:36:06.113Z,32.05
2022-08-26T12:38:37.102Z,32.01
2022-08-26T12:41:03.972Z,31.99
2022-08-26T12:43:37.067Z,31.94
2022-08-26T12:46:06.707Z,31.95
2022-08-26T12:48:36.124Z,31.95
2022-08-26T12:51:07.497Z,31.97
2022-08-26T12:53:40.827Z,32.02
2022-08-26T12:56:19.402Z,32.09
2022-08-26T12:58:59.855Z,32.20
2022-08-26T13:01:27.291Z,32.22
2022-08-26T13:03:56.441Z,32.26
2022-08-26T13:06:24.463Z,32.24
2022-08-26T13:08:53.181Z,32.31
2022-08-26T13:11:20.621Z,32.45
2022-08-26T13:13:54.032Z,32.48
2022-08-26T13:16:22.851Z,32.57
2022-08-26T13:18:52.733Z,32.60
2022-08-26T13:21:21.594Z,32.68
2022-08-26T13:23:50.757Z,32.73
2022-08-26T13:26:17.733Z,32.73
2022-08-26T13:28:44.574Z,32.74
2022-08-26T13:31:15.590Z,32.80
2022-08-26T13:33:45.400Z,32.78
2022-08-26T13:36:15.516Z,32.80
2022-08-26T13:38:42.502Z,32.84
2022-08-26T13:41:29.352Z,32.89
2022-08-26T13:43:56.766Z,32.94
2022-08-26T13:46:26.361Z,32.97
2022-08-26T13:48:54.665Z,32.98
2022-08-26T13:51:22.818Z,32.98
2022-08-26T13:53:50.267Z,32.99
2022-08-26T13:56:19.130Z,33.00
2022-08-26T13:58:47.586Z,32.98
2022-08-26T14:01:17.091Z,32.99
2022-08-26T14:03:46.984Z,33.03
2022-08-26T14:06:14.209Z,33.04
2022-08-26T14:08:41.862Z,33.07
2022-08-26T14:11:09.984Z,33.07
2022-08-26T14:13:37.487Z,33.08
2022-08-26T14:16:08.800Z,33.11
2022-08-26T14:18:41.631Z,33.07
2022-08-26T14:21:12.745Z,33.01
2022-08-26T14:23:41.293Z,32.99
2022-08-26T14:26:11.984Z,32.99
2022-08-26T14:28:46.903Z,32.95
2022-08-26T14:31:13.831Z,32.93
2022-08-26T14:33:41.934Z,32.89
2022-08-26T14:36:27.880Z,32.84
2022-08-26T14:38:56.964Z,32.77
2022-08-26T14:41:25.449Z,32.70
2022-08-26T14:43:57.890Z,32.60
2022-08-26T14:46:28.840Z,32.63
2022-08-26T14:49:01.744Z,32.65
2022-08-26T14:51:31.005Z,32.73
2022-08-26T14:54:16.625Z,32.78
2022-08-26T14:56:46.146Z,32.88
2022-08-26T14:59:14.034Z,32.99
2022-08-26T15:01:42.909Z,33.07
2022-08-26T15:04:11.948Z,33.14
2022-08-26T15:06:42.534Z,33.16
2022-08-26T15:09:09.471Z,33.17
2022-08-26T15:11:37.148Z,33.16
2022-08-26T15:14:04.659Z,33.08
2022-08-26T15:16:32.140Z,33.00
2022-08-26T15:19:00.698Z,32.90
2022-08-26T15:21:27.727Z,32.80
2022-08-26T15:23:55.049Z,32.75
2022-08-26T15:26:22.542Z,32.69
2022-08-26T15:28:50.428Z,32.60
2022-08-26T15:31:17.733Z,32.55
2022-08-26T15:33:45.814Z,32.48
2022-08-26T15:36:14.586Z,32.39
2022-08-26T15:38:42.601Z,32.27
2022-08-26T15:41:12.088Z,32.13
2022-08-26T15:43:38.998Z,32.04
2022-08-26T15:46:13.256Z,32.01
2022-08-26T15:48:40.492Z,31.94
2022-08-26T15:51:19.170Z,31.92
2022-08-26T15:53:47.609Z,31.90
2022-08-26T15:56:15.223Z,31.92
2022-08-26T15:58:42.562Z,31.84
2022-08-26T16:01:12.159Z,31.80
2022-08-26T16:03:39.041Z,31.79
2022-08-26T16:06:07.065Z,31.82
2022-08-26T16:08:36.653Z,31.83
2022-08-26T16:11:04.276Z,31.87
2022-08-26T16:13:33.924Z,31.89
2022-08-26T16:16:07.822Z,31.93
2022-08-26T16:18:34.687Z,31.95
2022-08-26T16:21:13.470Z,31.98
2022-08-26T16:23:45.104Z,31.99
2022-08-26T16:26:20.747Z,31.97
2022-08-26T16:28:50.643Z,31.93
2022-08-26T16:31:25.321Z,31.83
2022-08-26T16:34:00.677Z,31.84
2022-08-26T16:36:28.504Z,31.81
2022-08-26T16:38:56.620Z,31.78
2022-08-26T16:41:25.055Z,31.67
2022-08-26T16:43:54.896Z,31.65
2022-08-26T16:46:23.856Z,31.62
2022-08-26T16:48:52.544Z,31.61
2022-08-26T16:51:23.101Z,31.60
2022-08-26T16:53:50.427Z,31.58
2022-08-26T16:56:19.473Z,31.56
2022-08-26T16:58:50.846Z,31.52
2022-08-26T17:01:18.073Z,31.50
2022-08-26T17:03:45.425Z,31.44
2022-08-26T17:06:13.057Z,31.41
2022-08-26T17:08:41.089Z,31.35
2022-08-26T17:11:08.574Z,31.30
2022-08-26T17:13:36.389Z,31.25
2022-08-26T17:16:07.642Z,31.20
2022-08-26T17:18:35.583Z,31.18
2022-08-26T17:21:07.064Z,31.13
2022-08-26T17:23:34.589Z,31.08
2022-08-26T17:26:01.629Z,30.99
2022-08-26T17:28:28.903Z,30.91
2022-08-26T17:30:56.645Z,30.83
2022-08-26T17:33:24.790Z,30.74
2022-08-26T17:35:53.166Z,30.65
2022-08-26T17:38:21.345Z,30.54
2022-08-26T17:40:53.116Z,30.43
2022-08-26T17:43:20.164Z,30.30
2022-08-26T17:45:47.419Z,30.23
2022-08-26T17:48:14.938Z,30.12
2022-08-26T17:50:43.063Z,30.00
2022-08-26T17:53:18.877Z,29.91
2022-08-26T17:55:47.451Z,29.80
2022-08-26T17:58:15.845Z,29.72
2022-08-26T18:00:44.930Z,29.65
2022-08-26T18:03:11.833Z,29.58
2022-08-26T18:05:38.824Z,29.50
2022-08-26T18:08:06.489Z,29.43
2022-08-26T18:10:33.343Z,29.35
2022-08-26T18:13:01.987Z,29.29
2022-08-26T18:15:29.305Z,29.26
2022-08-26T18:17:56.122Z,29.19
2022-08-26T18:20:24.375Z,29.14
2022-08-26T18:22:53.212Z,29.00
2022-08-26T18:25:20.460Z,28.98
2022-08-26T18:27:47.481Z,28.87
2022-08-26T18:30:17.413Z,28.81
2022-08-26T18:32:44.314Z,28.76
2022-08-26T18:35:11.944Z,28.68
2022-08-26T18:37:39.816Z,28.65
2022-08-26T18:40:08.156Z,28.58
2022-08-26T18:42:35.175Z,28.52
2022-08-26T18:45:02.673Z,28.48
2022-08-26T18:47:31.209Z,28.43
2022-08-26T18:49:58.043Z,28.39
2022-08-26T18:52:25.239Z,28.34
2022-08-26T18:54:52.275Z,28.27
2022-08-26T18:57:21.821Z,28.23
2022-08-26T18:59:49.205Z,28.19
2022-08-26T19:02:16.226Z,28.16
2022-08-26T19:04:43.638Z,28.11
2022-08-26T19:07:10.836Z,28.11
2022-08-26T19:09:37.672Z,28.09
2022-08-26T19:12:04.866Z,28.05
2022-08-26T19:14:32.626Z,28.03
2022-08-26T19:17:00.546Z,28.00
2022-08-26T19:19:27.527Z,27.98
2022-08-26T19:21:55.427Z,27.97
2022-08-26T19:24:23.293Z,27.93
2022-08-26T19:26:58.899Z,27.91
2022-08-26T19:29:32.148Z,27.88
2022-08-26T19:31:59.766Z,27.86
2022-08-26T19:34:26.901Z,27.82
2022-08-26T19:36:54.756Z,27.80
2022-08-26T19:39:21.932Z,27.77
2022-08-26T19:41:48.832Z,27.72
2022-08-26T19:44:37.274Z,27.70
2022-08-26T19:47:05.462Z,27.68
2022-08-26T19:49:32.626Z,27.62
2022-08-26T19:51:59.625Z,27.59
2022-08-26T19:54:27.231Z,27.58
2022-08-26T19:56:54.665Z,27.56
2022-08-26T19:59:21.529Z,27.57
2022-08-26T20:02:00.370Z,27.49
2022-08-26T20:04:29.343Z,27.46
2022-08-26T20:06:57.811Z,27.39
2022-08-26T20:09:27.345Z,27.38
2022-08-26T20:11:56.802Z,27.30
2022-08-26T20:14:25.216Z,27.21
2022-08-26T20:16:52.139Z,27.16
2022-08-26T20:19:38.911Z,27.20
2022-08-26T20:22:07.872Z,27.02
2022-08-26T20:24:35.657Z,26.97
2022-08-26T20:27:07.287Z,26.96
2022-08-26T20:29:35.642Z,26.89
2022-08-26T20:32:02.752Z,26.90
2022-08-26T20:34:30.256Z,26.79
2022-08-26T20:36:58.072Z,26.76
2022-08-26T20:39:28.898Z,26.70
2022-08-26T20:41:56.954Z,26.64
2022-08-26T20:44:24.460Z,26.54
2022-08-26T20:46:51.484Z,26.47
2022-08-26T20:49:18.781Z,26.41
2022-08-26T20:51:47.916Z,26.37
2022-08-26T20:54:15.461Z,26.31
2022-08-26T20:56:42.459Z,26.27
2022-08-26T20:59:09.751Z,26.22
2022-08-26T21:01:42.093Z,26.22
2022-08-26T21:04:11.523Z,26.16
2022-08-26T21:06:38.710Z,26.18
2022-08-26T21:09:07.202Z,26.11
2022-08-26T21:11:34.829Z,26.09
2022-08-26T21:14:07.032Z,26.07
2022-08-26T21:16:44.055Z,26.05
2022-08-26T21:19:12.346Z,26.01
2022-08-26T21:21:39.451Z,26.00
2022-08-26T21:24:06.848Z,26.00
2022-08-26T21:26:33.987Z,25.97
2022-08-26T21:29:01.560Z,25.97
2022-08-26T21:31:29.850Z,25.95
2022-08-26T21:33:56.754Z,25.93
2022-08-26T21:36:23.622Z,25.91
2022-08-26T21:38:50.826Z,25.89
2022-08-26T21:41:20.330Z,25.87
2022-08-26T21:43:47.784Z,25.87
2022-08-26T21:46:16.962Z,25.82
2022-08-26T21:48:48.824Z,25.82
2022-08-26T21:51:19.034Z,25.84
2022-08-26T21:53:46.023Z,25.82
2022-08-26T21:56:14.511Z,25.78
2022-08-26T21:58:41.664Z,25.76
2022-08-26T22:01:10.351Z,25.72
2022-08-26T22:03:46.716Z,25.69
2022-08-26T22:06:19.027Z,25.67
2022-08-26T22:08:45.910Z,25.67
2022-08-26T22:11:13.612Z,25.65
2022-08-26T22:13:41.297Z,25.65
2022-08-26T22:16:08.497Z,25.64
2022-08-26T22:18:36.685Z,25.65
2022-08-26T22:21:05.958Z,25.66
2022-08-26T22:23:33.094Z,25.65
2022-08-26T22:26:00.247Z,25.65
2022-08-26T22:28:28.276Z,25.65
2022-08-26T22:30:55.766Z,25.66
2022-08-26T22:33:23.050Z,25.63
2022-08-26T22:35:51.312Z,25.62
2022-08-26T22:38:18.319Z,25.61
2022-08-26T22:40:47.510Z,25.59
2022-08-26T22:43:15.108Z,25.53
2022-08-26T22:45:45.922Z,25.52
2022-08-26T22:48:15.543Z,25.47
2022-08-26T22:50:43.366Z,25.45
2022-08-26T22:53:10.419Z,25.42
2022-08-26T22:55:37.578Z,25.39
2022-08-26T22:58:05.256Z,25.37
2022-08-26T23:00:32.607Z,25.37
2022-08-26T23:03:00.114Z,25.39
2022-08-26T23:05:27.496Z,25.42
2022-08-26T23:07:56.304Z,25.47
2022-08-26T23:10:23.931Z,25.49
2022-08-26T23:12:52.523Z,25.51
2022-08-26T23:15:20.409Z,25.52
2022-08-26T23:17:47.607Z,25.54
2022-08-26T23:20:24.158Z,25.51
2022-08-26T23:22:51.026Z,25.50
2022-08-26T23:25:17.933Z,25.48
2022-08-26T23:27:45.416Z,25.49
2022-08-26T23:30:14.492Z,25.47
2022-08-26T23:32:41.355Z,25.48
2022-08-26T23:35:09.752Z,25.48
2022-08-26T23:37:41.816Z,25.46
2022-08-26T23:40:10.971Z,25.42
2022-08-26T23:42:38.506Z,25.40
2022-08-26T23:45:06.746Z,25.40
2022-08-26T23:47:34.360Z,25.42
2022-08-26T23:50:01.331Z,25.42
2022-08-26T23:52:47.011Z,25.42
2022-08-26T23:55:14.558Z,25.40
2022-08-26T23:57:41.813Z,25.39
